createdAt,value
2022-08-17T00:00:34.729Z,0
2022-08-17T00:02:25.617Z,0
2022-08-17T00:04:24.033Z,0
2022-08-17T00:06:25.748Z,0
2022-08-17T00:08:27.620Z,0
2022-08-17T00:10:29.310Z,0
2022-08-17T00:12:35.593Z,0
2022-08-17T00:14:31.417Z,0
2022-08-17T00:16:55.726Z,0
2022-08-17T00:18:57.584Z,0
2022-08-17T00:20:35.274Z,0
2022-08-17T00:22:36.854Z,0
2022-08-17T00:24:37.511Z,0
2022-08-17T00:26:44.206Z,0
2022-08-17T00:28:39.589Z,0
2022-08-17T00:30:48.404Z,0
2022-08-17T00:33:10.397Z,0
2022-08-17T00:34:44.204Z,0
2022-08-17T00:36:45.297Z,0
2022-08-17T00:38:46.484Z,0
2022-08-17T00:40:48.293Z,0
2022-08-17T00:42:50.025Z,0
2022-08-17T00:44:51.313Z,0
2022-08-17T00:46:52.789Z,0
2022-08-17T00:48:53.893Z,0
2022-08-17T00:50:55.567Z,0
2022-08-17T00:52:57.153Z,0
2022-08-17T00:54:58.656Z,0
2022-08-17T00:56:59.665Z,0
2022-08-17T00:59:00.985Z,0
2022-08-17T01:03:03.738Z,0
2022-08-17T01:05:05.505Z,0
2022-08-17T01:07:06.710Z,0
2022-08-17T01:09:07.979Z,0
2022-08-17T01:13:10.426Z,0.421
2022-08-17T01:15:11.382Z,0
2022-08-17T01:17:12.738Z,0
2022-08-17T01:19:14.309Z,0
2022-08-17T01:21:15.989Z,0
2022-08-17T01:23:20.422Z,0
2022-08-17T01:25:19.634Z,0
2022-08-17T01:27:21.472Z,0
2022-08-17T01:29:22.845Z,0
2022-08-17T01:31:24.217Z,0
2022-08-17T01:33:25.209Z,0
2022-08-17T01:35:26.437Z,0
2022-08-17T01:37:27.709Z,0
2022-08-17T01:39:28.762Z,0
2022-08-17T01:41:30.377Z,0
2022-08-17T01:45:33.076Z,0
2022-08-17T01:47:34.782Z,0
2022-08-17T01:49:35.673Z,0
2022-08-17T01:51:36.584Z,0
2022-08-17T01:55:39.396Z,0
2022-08-17T01:57:40.703Z,0
2022-08-17T01:58:24.524Z,0
2022-08-17T02:00:25.840Z,0
2022-08-17T02:02:30.211Z,0
2022-08-17T02:04:28.561Z,0
2022-08-17T02:06:30.220Z,0
2022-08-17T02:08:37.397Z,0
2022-08-17T02:10:33.787Z,0
2022-08-17T02:12:38.743Z,0.421
2022-08-17T02:14:35.603Z,0
2022-08-17T02:16:37.251Z,0
2022-08-17T02:18:37.632Z,0
2022-08-17T02:20:41.421Z,0
2022-08-17T02:22:40.147Z,0
2022-08-17T02:24:59.083Z,0
2022-08-17T02:26:42.799Z,0
2022-08-17T02:28:44.371Z,0
2022-08-17T02:31:00.509Z,0
2022-08-17T02:32:47.730Z,0
2022-08-17T02:34:48.903Z,0
2022-08-17T02:38:51.490Z,0
2022-08-17T02:40:52.555Z,0
2022-08-17T02:42:54.116Z,0
2022-08-17T02:44:55.377Z,0
2022-08-17T02:48:58.372Z,0
2022-08-17T02:50:59.602Z,0
2022-08-17T02:53:02.662Z,0
2022-08-17T02:55:02.769Z,0
2022-08-17T02:59:05.170Z,0
2022-08-17T03:01:07.063Z,0
2022-08-17T03:03:08.604Z,0
2022-08-17T03:05:09.537Z,0
2022-08-17T03:07:10.625Z,0
2022-08-17T03:09:12.446Z,0
2022-08-17T03:11:13.786Z,0
2022-08-17T03:13:14.824Z,0
2022-08-17T03:15:16.568Z,0
2022-08-17T03:17:18.182Z,0
2022-08-17T03:21:20.839Z,0
2022-08-17T03:23:23.636Z,0
2022-08-17T03:25:23.765Z,0
2022-08-17T03:27:25.187Z,0
2022-08-17T03:31:28.001Z,0
2022-08-17T03:33:29.152Z,0
2022-08-17T03:35:30.838Z,0
2022-08-17T03:37:32.092Z,0
2022-08-17T03:39:33.150Z,0.702
2022-08-17T03:41:34.364Z,0
2022-08-17T03:43:35.543Z,0
2022-08-17T03:45:37.331Z,0
2022-08-17T03:47:38.251Z,0
2022-08-17T03:49:39.225Z,0
2022-08-17T03:51:40.831Z,0
2022-08-17T03:53:42.720Z,0
2022-08-17T03:55:44.401Z,0
2022-08-17T03:57:46.358Z,0
2022-08-17T03:59:47.635Z,0
2022-08-17T04:01:48.713Z,0
2022-08-17T04:03:49.838Z,0
2022-08-17T04:05:51.734Z,0
2022-08-17T04:07:52.812Z,0
2022-08-17T04:09:53.785Z,0
2022-08-17T04:11:54.835Z,0
2022-08-17T04:13:56.632Z,0
2022-08-17T04:15:58.494Z,0
2022-08-17T04:17:59.636Z,0
2022-08-17T04:20:01.040Z,0
2022-08-17T04:22:02.564Z,0
2022-08-17T04:24:03.795Z,0
2022-08-17T04:26:04.811Z,0
2022-08-17T04:28:07.598Z,0
2022-08-17T04:30:07.689Z,0
2022-08-17T04:32:09.245Z,0
2022-08-17T04:34:11.015Z,0
2022-08-17T04:36:12.641Z,0
2022-08-17T04:38:14.123Z,0
2022-08-17T04:40:15.211Z,0
2022-08-17T04:42:17.043Z,0
2022-08-17T04:44:27.319Z,0
2022-08-17T04:46:19.966Z,0
2022-08-17T04:48:21.293Z,0
2022-08-17T04:50:23.006Z,0
2022-08-17T04:52:32.160Z,0
2022-08-17T04:54:25.462Z,0
2022-08-17T04:56:26.989Z,0
2022-08-17T04:58:27.992Z,0
2022-08-17T05:02:30.997Z,0
2022-08-17T05:04:34.717Z,0
2022-08-17T05:06:33.547Z,0
2022-08-17T05:08:35.134Z,0
2022-08-17T05:12:38.008Z,0
2022-08-17T05:14:39.696Z,0
2022-08-17T05:16:41.361Z,0
2022-08-17T05:18:42.939Z,0
2022-08-17T05:20:43.906Z,0
2022-08-17T05:22:45.760Z,0
2022-08-17T05:24:53.693Z,0
2022-08-17T05:26:48.500Z,0
2022-08-17T05:28:49.755Z,0
2022-08-17T05:30:51.452Z,0
2022-08-17T05:32:52.613Z,0
2022-08-17T05:34:54.216Z,0
2022-08-17T05:36:55.873Z,0
2022-08-17T05:38:57.261Z,0
2022-08-17T05:40:58.903Z,0
2022-08-17T05:43:00.251Z,0
2022-08-17T05:45:01.772Z,0
2022-08-17T05:47:03.364Z,0
2022-08-17T05:49:04.951Z,0
2022-08-17T05:51:05.961Z,0
2022-08-17T05:53:07.744Z,0
2022-08-17T05:55:09.523Z,0
2022-08-17T05:57:11.136Z,0
2022-08-17T05:59:12.740Z,0.14
2022-08-17T06:01:14.369Z,0.28
2022-08-17T06:03:16.040Z,0.28
2022-08-17T06:05:17.863Z,0
2022-08-17T06:07:18.901Z,0.14
2022-08-17T06:09:25.862Z,0
2022-08-17T06:11:21.193Z,0.702
2022-08-17T06:13:22.033Z,2.386
2022-08-17T06:15:22.835Z,3.229
2022-08-17T06:17:23.847Z,0.842
2022-08-17T06:19:24.787Z,2.808
2022-08-17T06:21:30.446Z,1.263
2022-08-17T06:23:27.879Z,0.842
2022-08-17T06:25:28.975Z,1.965
2022-08-17T06:27:30.533Z,0
2022-08-17T06:29:31.915Z,2.667
2022-08-17T06:31:33.689Z,2.106
2022-08-17T06:33:35.316Z,2.527
2022-08-17T06:37:38.222Z,0
2022-08-17T06:39:39.613Z,0
2022-08-17T06:41:41.008Z,2.386
2022-08-17T06:43:45.049Z,1.965
2022-08-17T06:45:43.656Z,3.79
2022-08-17T06:47:44.620Z,2.527
2022-08-17T06:49:46.332Z,3.931
2022-08-17T06:51:47.854Z,2.808
2022-08-17T06:53:49.071Z,3.79
2022-08-17T06:55:50.101Z,3.088
2022-08-17T06:57:50.998Z,2.667
2022-08-17T06:59:54.567Z,2.948
2022-08-17T07:01:54.194Z,3.65
2022-08-17T07:03:55.104Z,2.527
2022-08-17T07:05:56.941Z,2.667
2022-08-17T07:07:57.904Z,2.246
2022-08-17T07:09:58.849Z,4.914
2022-08-17T07:11:59.685Z,2.246
2022-08-17T07:14:01.362Z,3.369
2022-08-17T07:16:02.751Z,1.263
2022-08-17T07:18:04.265Z,2.106
2022-08-17T07:20:05.451Z,0.561
2022-08-17T07:22:07.059Z,1.544
2022-08-17T07:24:08.511Z,2.386
2022-08-17T07:26:10.252Z,0.421
2022-08-17T07:28:11.798Z,1.965
2022-08-17T07:30:12.985Z,1.965
2022-08-17T07:32:13.912Z,0
2022-08-17T07:34:15.739Z,0.702
2022-08-17T07:36:17.106Z,0
2022-08-17T07:38:24.470Z,0.982
2022-08-17T07:40:19.827Z,0.421
2022-08-17T07:42:21.140Z,0.28
2022-08-17T07:44:22.445Z,0
2022-08-17T07:46:23.641Z,0
2022-08-17T07:48:25.137Z,0
2022-08-17T07:50:26.893Z,0.561
2022-08-17T07:52:48.759Z,0.842
2022-08-17T07:54:29.480Z,0
2022-08-17T07:56:34.346Z,0
2022-08-17T07:58:31.993Z,0
2022-08-17T08:00:33.225Z,0.14
2022-08-17T08:02:34.243Z,1.123
2022-08-17T08:05:00.860Z,2.808
2022-08-17T08:08:37.958Z,0
2022-08-17T08:10:39.288Z,2.106
2022-08-17T08:12:40.570Z,0.14
2022-08-17T08:14:41.514Z,0.561
2022-08-17T08:18:55.150Z,5.475
2022-08-17T08:20:51.635Z,1.825
2022-08-17T08:22:47.760Z,3.51
2022-08-17T08:24:48.719Z,1.544
2022-08-17T08:26:49.659Z,3.369
2022-08-17T08:28:51.189Z,0.842
2022-08-17T08:30:52.895Z,2.386
2022-08-17T08:32:53.666Z,0.561
2022-08-17T08:35:01.325Z,0.14
2022-08-17T08:37:14.132Z,0.28
2022-08-17T08:38:57.904Z,2.386
2022-08-17T08:40:58.849Z,1.263
2022-08-17T08:43:00.290Z,0.561
2022-08-17T08:45:04.357Z,1.825
2022-08-17T08:45:45.319Z,1.684
2022-08-17T08:47:47.142Z,0.982
2022-08-17T08:50:02.456Z,0
2022-08-17T08:51:49.561Z,0
2022-08-17T08:53:50.343Z,0.28
2022-08-17T08:55:51.777Z,1.965
2022-08-17T08:57:53.935Z,0
2022-08-17T08:59:57.754Z,0.561
2022-08-17T09:01:56.290Z,0.421
2022-08-17T09:04:12.016Z,0
2022-08-17T09:05:58.473Z,0.421
2022-08-17T09:07:59.531Z,0
2022-08-17T09:10:00.606Z,0.982
2022-08-17T09:12:03.738Z,0
2022-08-17T09:14:03.742Z,0
2022-08-17T09:16:05.375Z,0.28
2022-08-17T09:18:28.760Z,0.14
2022-08-17T09:20:07.867Z,0.561
2022-08-17T09:22:09.449Z,2.667
2022-08-17T09:24:10.255Z,0.28
2022-08-17T09:26:11.292Z,1.123
2022-08-17T09:28:12.564Z,0
2022-08-17T09:30:13.540Z,0
2022-08-17T09:32:14.832Z,0.421
2022-08-17T09:34:15.916Z,0
2022-08-17T09:36:17.202Z,0
2022-08-17T09:38:18.644Z,0
2022-08-17T09:40:19.868Z,1.123
2022-08-17T09:44:22.616Z,0.982
2022-08-17T09:46:22.997Z,3.79
2022-08-17T09:48:23.971Z,0
2022-08-17T09:50:55.631Z,1.684
2022-08-17T09:54:38.443Z,0.842
2022-08-17T09:56:28.531Z,1.123
2022-08-17T09:58:29.381Z,2.106
2022-08-17T10:00:30.443Z,2.808
2022-08-17T10:02:31.722Z,2.246
2022-08-17T10:04:33.405Z,1.404
2022-08-17T10:06:34.705Z,2.386
2022-08-17T10:08:35.842Z,1.404
2022-08-17T10:10:37.163Z,2.246
2022-08-17T10:14:43.593Z,5.054
2022-08-17T10:16:41.670Z,0
2022-08-17T10:18:42.761Z,0.561
2022-08-17T10:20:43.682Z,4.212
2022-08-17T10:22:44.718Z,1.544
2022-08-17T10:25:02.164Z,3.931
2022-08-17T10:26:56.272Z,3.369
2022-08-17T10:28:48.185Z,6.318
2022-08-17T10:30:49.416Z,3.088
2022-08-17T10:32:51.197Z,4.633
2022-08-17T10:34:52.851Z,3.369
2022-08-17T10:36:53.769Z,5.335
2022-08-17T10:38:54.898Z,1.825
2022-08-17T10:40:56.299Z,1.544
2022-08-17T10:42:57.253Z,3.229
2022-08-17T10:44:58.376Z,3.79
2022-08-17T10:46:59.274Z,4.352
2022-08-17T10:49:00.762Z,3.51
2022-08-17T10:51:02.508Z,2.808
2022-08-17T10:53:04.257Z,1.825
2022-08-17T10:55:05.515Z,1.123
2022-08-17T10:57:06.372Z,4.212
2022-08-17T10:59:07.551Z,0
2022-08-17T11:01:08.451Z,3.369
2022-08-17T11:03:09.864Z,1.825
2022-08-17T11:05:10.679Z,2.246
2022-08-17T11:07:11.744Z,0.561
2022-08-17T11:09:13.025Z,3.931
2022-08-17T11:11:14.839Z,1.544
2022-08-17T11:13:15.934Z,3.51
2022-08-17T11:15:17.148Z,5.756
2022-08-17T11:17:18.612Z,3.088
2022-08-17T11:19:19.672Z,2.808
2022-08-17T11:21:21.402Z,0.421
2022-08-17T11:25:23.051Z,0.561
2022-08-17T11:27:24.105Z,0.842
2022-08-17T11:29:25.594Z,4.633
2022-08-17T11:31:38.253Z,2.386
2022-08-17T11:33:27.890Z,3.369
2022-08-17T11:35:29.201Z,2.667
2022-08-17T11:37:30.528Z,1.544
2022-08-17T11:39:32.216Z,3.369
2022-08-17T11:41:33.703Z,1.825
2022-08-17T11:43:37.381Z,2.948
2022-08-17T11:45:36.331Z,3.229
2022-08-17T11:47:37.296Z,1.263
2022-08-17T11:49:38.963Z,6.037
2022-08-17T11:51:40.001Z,4.212
2022-08-17T11:53:41.294Z,5.335
2022-08-17T11:55:44.904Z,6.598
2022-08-17T11:57:44.479Z,7.441
2022-08-17T11:59:45.553Z,9.266
2022-08-17T12:01:46.654Z,7.722
2022-08-17T12:03:53.733Z,9.126
2022-08-17T12:05:48.778Z,4.071
2022-08-17T12:07:49.763Z,6.177
2022-08-17T12:09:51.915Z,3.931
2022-08-17T12:11:55.063Z,10.249
2022-08-17T12:13:54.368Z,5.756
2022-08-17T12:15:55.451Z,11.091
2022-08-17T12:17:56.739Z,3.931
2022-08-17T12:19:57.354Z,4.352
2022-08-17T12:21:58.049Z,5.616
2022-08-17T12:23:59.088Z,6.458
2022-08-17T12:26:00.339Z,1.825
2022-08-17T12:28:05.809Z,1.404
2022-08-17T12:30:03.208Z,4.633
2022-08-17T12:32:04.187Z,0.14
2022-08-17T12:34:05.650Z,4.773
2022-08-17T12:36:06.853Z,0.842
2022-08-17T12:38:26.987Z,1.263
2022-08-17T12:40:09.481Z,0.561
2022-08-17T12:42:10.698Z,0.28
2022-08-17T12:44:11.857Z,1.544
2022-08-17T12:46:15.370Z,2.246
2022-08-17T12:48:14.543Z,0
2022-08-17T12:50:28.427Z,2.667
2022-08-17T12:52:16.874Z,2.106
2022-08-17T12:54:18.114Z,4.071
2022-08-17T12:56:19.376Z,0.14
2022-08-17T12:58:20.771Z,1.404
2022-08-17T13:00:21.751Z,1.404
2022-08-17T13:02:22.830Z,3.65
2022-08-17T13:06:25.638Z,0.842
2022-08-17T13:08:26.682Z,3.65
2022-08-17T13:10:32.347Z,3.79
2022-08-17T13:12:29.506Z,4.633
2022-08-17T13:16:31.770Z,6.177
2022-08-17T13:18:33.481Z,5.335
2022-08-17T13:20:34.983Z,4.352
2022-08-17T13:22:36.565Z,2.667
2022-08-17T13:24:37.781Z,1.544
2022-08-17T13:26:38.940Z,0.982
2022-08-17T13:28:40.047Z,0.28
2022-08-17T13:30:41.243Z,1.684
2022-08-17T13:32:44.230Z,0.28
2022-08-17T13:34:51.379Z,1.965
2022-08-17T13:36:45.631Z,0
2022-08-17T13:38:46.461Z,1.123
2022-08-17T13:40:47.337Z,0.14
2022-08-17T13:42:52.491Z,3.79
2022-08-17T13:44:50.603Z,0.28
2022-08-17T13:46:52.444Z,0.28
2022-08-17T13:48:52.601Z,0.561
2022-08-17T13:50:55.084Z,1.263
2022-08-17T13:52:56.841Z,0
2022-08-17T13:54:57.931Z,0
2022-08-17T13:56:59.528Z,0.561
2022-08-17T13:59:00.691Z,0
2022-08-17T14:01:01.887Z,1.544
2022-08-17T14:03:03.162Z,0.14
2022-08-17T14:05:06.047Z,1.123
2022-08-17T14:07:05.582Z,1.263
2022-08-17T14:09:06.452Z,0.561
2022-08-17T14:11:07.647Z,1.684
2022-08-17T14:15:10.053Z,2.246
2022-08-17T14:17:11.550Z,2.808
2022-08-17T14:19:12.322Z,1.544
2022-08-17T14:21:13.780Z,0.14
2022-08-17T14:23:14.950Z,0.982
2022-08-17T14:25:16.559Z,2.948
2022-08-17T14:27:17.786Z,2.246
2022-08-17T14:29:18.774Z,1.825
2022-08-17T14:31:20.095Z,1.544
2022-08-17T14:33:21.313Z,0
2022-08-17T14:35:22.767Z,0
2022-08-17T14:37:24.339Z,0
2022-08-17T14:39:25.405Z,1.684
2022-08-17T14:41:27.198Z,0.28
2022-08-17T14:43:28.430Z,3.229
2022-08-17T14:47:30.661Z,0.842
2022-08-17T14:49:32.546Z,1.965
2022-08-17T14:51:34.316Z,0.28
2022-08-17T14:53:35.634Z,0.561
2022-08-17T14:57:38.820Z,0.14
2022-08-17T14:59:40.807Z,0.14
2022-08-17T15:01:41.712Z,1.684
2022-08-17T15:03:42.511Z,1.123
2022-08-17T15:05:43.911Z,1.965
2022-08-17T15:07:45.024Z,2.808
2022-08-17T15:09:45.898Z,0.14
2022-08-17T15:11:46.862Z,2.948
2022-08-17T15:13:52.643Z,0.561
2022-08-17T15:15:49.434Z,0.982
2022-08-17T15:17:50.550Z,0.561
2022-08-17T15:19:51.889Z,1.544
2022-08-17T15:21:52.718Z,2.246
2022-08-17T15:23:54.058Z,1.263
2022-08-17T15:25:55.186Z,0.561
2022-08-17T15:27:56.770Z,4.492
2022-08-17T15:29:57.779Z,1.825
2022-08-17T15:30:41.463Z,1.544
2022-08-17T15:32:45.723Z,0.561
2022-08-17T15:34:45.138Z,4.071
2022-08-17T15:36:49.296Z,0.28
2022-08-17T15:38:47.499Z,0
2022-08-17T15:40:48.294Z,0.561
2022-08-17T15:42:49.714Z,0
2022-08-17T15:44:51.075Z,0
2022-08-17T15:46:52.811Z,0
2022-08-17T15:50:55.169Z,0.702
2022-08-17T15:52:56.249Z,1.544
2022-08-17T15:54:57.249Z,0.982
2022-08-17T15:56:58.393Z,0.28
2022-08-17T15:58:59.260Z,0.28
2022-08-17T16:03:15.645Z,0
2022-08-17T16:05:04.025Z,0.421
2022-08-17T16:07:05.707Z,0
2022-08-17T16:09:06.926Z,1.684
2022-08-17T16:13:17.218Z,0
2022-08-17T16:15:10.974Z,0
2022-08-17T16:17:15.580Z,2.106
2022-08-17T16:19:12.984Z,1.123
2022-08-17T16:21:14.690Z,0.14
2022-08-17T16:23:19.869Z,0.982
2022-08-17T16:25:17.397Z,0
2022-08-17T16:27:18.159Z,0.14
2022-08-17T16:29:19.600Z,0.421
2022-08-17T16:31:21.045Z,0
2022-08-17T16:33:22.033Z,1.684
2022-08-17T16:35:23.610Z,1.123
2022-08-17T16:37:24.564Z,1.684
2022-08-17T16:39:25.389Z,2.527
2022-08-17T16:41:27.071Z,1.965
2022-08-17T16:43:27.962Z,0
2022-08-17T16:45:28.815Z,0.421
2022-08-17T16:47:29.671Z,0.14
2022-08-17T16:49:36.409Z,0.702
2022-08-17T16:51:32.314Z,0.842
2022-08-17T16:53:33.618Z,0
2022-08-17T16:55:35.121Z,0
2022-08-17T16:57:35.902Z,0.14
2022-08-17T16:59:39.491Z,0
2022-08-17T17:01:37.963Z,0
2022-08-17T17:03:38.765Z,0.702
2022-08-17T17:05:39.941Z,0.421
2022-08-17T17:07:40.710Z,1.825
2022-08-17T17:09:41.802Z,0
2022-08-17T17:11:42.948Z,0
2022-08-17T17:13:44.512Z,0
2022-08-17T17:15:46.457Z,0
2022-08-17T17:17:47.914Z,0
2022-08-17T17:21:50.520Z,0
2022-08-17T17:23:52.253Z,0
2022-08-17T17:25:53.145Z,0.702
2022-08-17T17:27:54.158Z,0
2022-08-17T17:29:55.439Z,0
2022-08-17T17:31:57.119Z,0
2022-08-17T17:33:58.373Z,0
2022-08-17T17:36:00.010Z,0
2022-08-17T17:38:00.809Z,0
2022-08-17T17:40:02.601Z,0
2022-08-17T17:42:03.748Z,1.263
2022-08-17T17:44:05.183Z,1.544
2022-08-17T17:46:21.914Z,1.544
2022-08-17T17:48:08.084Z,1.263
2022-08-17T17:50:09.068Z,0.702
2022-08-17T17:54:11.709Z,0
2022-08-17T17:56:18.766Z,0
2022-08-17T17:58:14.516Z,0
2022-08-17T18:00:15.368Z,0
2022-08-17T18:04:20.798Z,0
2022-08-17T18:06:19.993Z,0
2022-08-17T18:08:20.899Z,0
2022-08-17T18:10:29.379Z,0
2022-08-17T18:12:24.437Z,0
2022-08-17T18:14:25.092Z,0
2022-08-17T18:16:26.166Z,0
2022-08-17T18:18:27.139Z,0
2022-08-17T18:20:32.583Z,0
2022-08-17T18:22:29.608Z,0.28
2022-08-17T18:24:31.210Z,0.28
2022-08-17T18:26:32.741Z,0
2022-08-17T18:28:34.473Z,0.14
2022-08-17T18:30:35.786Z,0.14
2022-08-17T18:32:37.165Z,0
2022-08-17T18:34:46.328Z,0
2022-08-17T18:36:40.237Z,0
2022-08-17T18:38:41.834Z,0
2022-08-17T18:40:42.717Z,0
2022-08-17T18:44:46.036Z,0
2022-08-17T18:46:47.352Z,0
2022-08-17T18:48:49.014Z,0
2022-08-17T18:50:51.438Z,0
2022-08-17T18:52:51.174Z,0
2022-08-17T18:54:52.465Z,0
2022-08-17T18:56:54.121Z,0
2022-08-17T18:58:55.877Z,0
2022-08-17T19:00:57.394Z,0
2022-08-17T19:02:58.435Z,0
2022-08-17T19:04:59.338Z,0
2022-08-17T19:07:00.206Z,0
2022-08-17T19:09:01.265Z,0
2022-08-17T19:11:02.671Z,0
2022-08-17T19:13:03.757Z,0
2022-08-17T19:15:04.785Z,0
2022-08-17T19:17:05.889Z,0
2022-08-17T19:19:06.968Z,0
2022-08-17T19:21:07.870Z,0
2022-08-17T19:23:09.623Z,0
2022-08-17T19:25:10.669Z,0
2022-08-17T19:27:11.730Z,0
2022-08-17T19:29:12.957Z,0
2022-08-17T19:31:13.845Z,0
2022-08-17T19:35:17.460Z,0
2022-08-17T19:37:17.496Z,0
2022-08-17T19:39:18.847Z,0
2022-08-17T19:41:20.031Z,0
2022-08-17T19:45:21.959Z,0
2022-08-17T19:47:43.728Z,0
2022-08-17T19:49:33.088Z,0
2022-08-17T19:51:27.021Z,0
2022-08-17T19:53:41.935Z,0
2022-08-17T19:55:29.660Z,0
2022-08-17T19:57:31.062Z,0
2022-08-17T19:59:35.713Z,0
2022-08-17T20:01:34.774Z,0
2022-08-17T20:03:35.272Z,0
2022-08-17T20:05:48.923Z,0.28
2022-08-17T20:07:37.566Z,1.263
2022-08-17T20:09:39.208Z,0
2022-08-17T20:11:40.325Z,0.842
2022-08-17T20:13:41.786Z,0.561
2022-08-17T20:15:43.455Z,0.421
2022-08-17T20:17:44.555Z,2.106
2022-08-17T20:19:45.838Z,1.404
2022-08-17T20:21:46.889Z,0
2022-08-17T20:23:47.882Z,0
2022-08-17T20:25:49.607Z,0
2022-08-17T20:27:51.594Z,0.421
2022-08-17T20:29:52.644Z,0
2022-08-17T20:31:54.150Z,0
2022-08-17T20:33:55.693Z,0
2022-08-17T20:35:57.475Z,0
2022-08-17T20:37:58.993Z,0
2022-08-17T20:40:00.282Z,0
2022-08-17T20:42:02.755Z,0
2022-08-17T20:44:03.545Z,0
2022-08-17T20:46:05.371Z,0
2022-08-17T20:48:30.844Z,0
2022-08-17T20:50:08.366Z,0
2022-08-17T20:52:09.810Z,0
2022-08-17T20:54:11.230Z,0
2022-08-17T20:56:13.041Z,0
2022-08-17T20:58:14.747Z,0
2022-08-17T21:00:16.089Z,0
2022-08-17T21:02:19.316Z,0
2022-08-17T21:04:18.571Z,0
2022-08-17T21:08:21.332Z,0.842
2022-08-17T21:10:22.484Z,0.561
2022-08-17T21:12:24.125Z,0
2022-08-17T21:14:25.653Z,0
2022-08-17T21:16:27.196Z,0
2022-08-17T21:18:28.139Z,0
2022-08-17T21:20:32.368Z,0
2022-08-17T21:22:30.552Z,0
2022-08-17T21:24:32.361Z,0
2022-08-17T21:26:33.683Z,0
2022-08-17T21:28:34.863Z,0
2022-08-17T21:30:36.231Z,0
2022-08-17T21:32:37.111Z,0
2022-08-17T21:34:38.315Z,0
2022-08-17T21:36:40.117Z,0
2022-08-17T21:38:41.367Z,0
2022-08-17T21:40:43.222Z,0.702
2022-08-17T21:42:44.671Z,0
2022-08-17T21:44:46.155Z,0
2022-08-17T21:46:47.690Z,0
2022-08-17T21:48:49.893Z,0
2022-08-17T21:50:50.948Z,0
2022-08-17T21:52:51.978Z,0
2022-08-17T21:54:53.156Z,0
2022-08-17T21:58:55.492Z,0
2022-08-17T22:00:57.273Z,0
2022-08-17T22:02:58.793Z,1.544
2022-08-17T22:05:00.526Z,0.14
2022-08-17T22:09:03.781Z,0
2022-08-17T22:11:04.678Z,0
2022-08-17T22:13:05.682Z,0
2022-08-17T22:15:06.870Z,0
2022-08-17T22:15:50.593Z,0
2022-08-17T22:17:51.926Z,0.14
2022-08-17T22:19:53.552Z,0
2022-08-17T22:21:54.840Z,0
2022-08-17T22:25:58.202Z,0
2022-08-17T22:27:59.325Z,0
2022-08-17T22:30:00.405Z,0
2022-08-17T22:32:01.614Z,0
2022-08-17T22:36:05.228Z,0
2022-08-17T22:38:06.865Z,0
2022-08-17T22:40:08.770Z,0
2022-08-17T22:42:10.212Z,0
2022-08-17T22:44:11.830Z,0
2022-08-17T22:46:13.451Z,0
2022-08-17T22:48:15.275Z,0
2022-08-17T22:50:16.798Z,0
2022-08-17T22:52:18.205Z,0
2022-08-17T22:54:19.479Z,0
2022-08-17T22:56:20.339Z,0
2022-08-17T22:58:22.171Z,0
2022-08-17T23:00:23.630Z,0
2022-08-17T23:02:25.444Z,0
2022-08-17T23:04:26.493Z,0
2022-08-17T23:08:29.417Z,0
2022-08-17T23:10:30.576Z,0
2022-08-17T23:12:32.269Z,0
2022-08-17T23:14:33.235Z,0
2022-08-17T23:18:35.821Z,0
2022-08-17T23:20:36.877Z,0
2022-08-17T23:22:38.272Z,0
2022-08-17T23:24:39.809Z,0
2022-08-17T23:26:41.308Z,0
2022-08-17T23:28:43.092Z,0
2022-08-17T23:30:44.247Z,0
2022-08-17T23:32:53.230Z,0
2022-08-17T23:34:46.119Z,0
2022-08-17T23:36:47.590Z,0
2022-08-17T23:38:49.265Z,0
2022-08-17T23:40:50.136Z,0
2022-08-17T23:42:51.969Z,0.561
2022-08-17T23:44:53.308Z,6.739
2022-08-17T23:46:54.865Z,4.212
2022-08-17T23:48:55.913Z,6.177
2022-08-17T23:50:57.158Z,4.773
2022-08-17T23:52:58.246Z,7.3
2022-08-17T23:54:59.413Z,8.985
2022-08-17T23:57:00.435Z,4.212
2022-08-17T23:59:02.146Z,5.616
